Terminal Aerodrome Forecast
Issued by NWS

Home | Current Version | Previous Version | Text Only | Print | Product List | Glossary On
Versions: 1 2 3 4 5 6 7 8 9 10 11 12 13 14 15 16 17 18 19
000
FTUS44 KCRP 231739
TAFALI
TAF
KALI 231739Z 2318/2418 08007KT P6SM BKN150
     FM240300 14005KT P6SM SCT150
     FM240800 VRB02KT 4SM BR SCT150
      TEMPO 2410/2413 1SM BR
     FM241400 12006KT P6SM FEW150
      AMD NOT SKED=

USA.gov is the U.S. government's official web portal to all federal, state and local government web resources and services.